sensor_id;sensor_type;location;lat;lon;timestamp;temperature;humidity
23769;DHT22;12064;50.890;5.424;2022-08-03T00:02:35;29.60;70.20
23769;DHT22;12064;50.890;5.424;2022-08-03T00:11:25;29.50;70.20
23769;DHT22;12064;50.890;5.424;2022-08-03T00:20:16;29.60;70.10
23769;DHT22;12064;50.890;5.424;2022-08-03T00:29:07;29.50;70.50
23769;DHT22;12064;50.890;5.424;2022-08-03T00:37:58;29.40;70.60
23769;DHT22;12064;50.890;5.424;2022-08-03T00:46:48;29.30;70.70
23769;DHT22;12064;50.890;5.424;2022-08-03T00:55:42;29.40;70.60
23769;DHT22;12064;50.890;5.424;2022-08-03T01:04:33;29.20;71.00
23769;DHT22;12064;50.890;5.424;2022-08-03T01:13:47;29.20;71.00
23769;DHT22;12064;50.890;5.424;2022-08-03T01:31:58;29.20;71.00
23769;DHT22;12064;50.890;5.424;2022-08-03T01:40:52;29.00;71.30
23769;DHT22;12064;50.890;5.424;2022-08-03T01:49:44;29.10;70.80
23769;DHT22;12064;50.890;5.424;2022-08-03T01:58:36;29.10;70.80
23769;DHT22;12064;50.890;5.424;2022-08-03T02:07:28;29.10;70.60
23769;DHT22;12064;50.890;5.424;2022-08-03T02:16:21;29.10;70.60
23769;DHT22;12064;50.890;5.424;2022-08-03T02:25:14;29.10;70.50
23769;DHT22;12064;50.890;5.424;2022-08-03T02:34:12;28.90;70.60
23769;DHT22;12064;50.890;5.424;2022-08-03T02:43:07;28.90;70.50
23769;DHT22;12064;50.890;5.424;2022-08-03T02:52:03;28.90;70.50
23769;DHT22;12064;50.890;5.424;2022-08-03T03:00:59;28.90;70.20
23769;DHT22;12064;50.890;5.424;2022-08-03T03:09:53;28.90;70.50
23769;DHT22;12064;50.890;5.424;2022-08-03T03:18:46;28.80;70.50
23769;DHT22;12064;50.890;5.424;2022-08-03T03:27:38;28.70;70.40
23769;DHT22;12064;50.890;5.424;2022-08-03T03:36:29;28.60;70.60
23769;DHT22;12064;50.890;5.424;2022-08-03T03:45:30;28.70;70.40
23769;DHT22;12064;50.890;5.424;2022-08-03T03:54:21;28.60;71.30
23769;DHT22;12064;50.890;5.424;2022-08-03T04:03:32;28.70;70.30
23769;DHT22;12064;50.890;5.424;2022-08-03T04:12:25;28.60;70.50
23769;DHT22;12064;50.890;5.424;2022-08-03T04:21:21;28.60;70.10
23769;DHT22;12064;50.890;5.424;2022-08-03T04:30:16;28.50;70.40
23769;DHT22;12064;50.890;5.424;2022-08-03T04:48:54;28.00;71.70
23769;DHT22;12064;50.890;5.424;2022-08-03T04:57:45;28.00;72.10
23769;DHT22;12064;50.890;5.424;2022-08-03T05:06:35;27.90;72.30
23769;DHT22;12064;50.890;5.424;2022-08-03T05:15:26;28.10;72.10
23769;DHT22;12064;50.890;5.424;2022-08-03T05:24:17;28.20;71.70
23769;DHT22;12064;50.890;5.424;2022-08-03T05:33:12;28.10;71.90
23769;DHT22;12064;50.890;5.424;2022-08-03T05:42:03;28.10;72.00
23769;DHT22;12064;50.890;5.424;2022-08-03T05:50:59;28.40;71.00
23769;DHT22;12064;50.890;5.424;2022-08-03T05:59:50;28.70;70.00
23769;DHT22;12064;50.890;5.424;2022-08-03T06:08:42;29.10;69.10
23769;DHT22;12064;50.890;5.424;2022-08-03T06:17:33;29.20;68.80
23769;DHT22;12064;50.890;5.424;2022-08-03T06:26:27;29.30;68.70
23769;DHT22;12064;50.890;5.424;2022-08-03T06:35:18;29.30;68.50
23769;DHT22;12064;50.890;5.424;2022-08-03T06:44:09;29.40;68.40
23769;DHT22;12064;50.890;5.424;2022-08-03T06:53:00;29.40;68.20
23769;DHT22;12064;50.890;5.424;2022-08-03T07:01:51;29.40;68.30
23769;DHT22;12064;50.890;5.424;2022-08-03T07:10:43;29.50;68.20
23769;DHT22;12064;50.890;5.424;2022-08-03T07:19:33;29.50;68.00
23769;DHT22;12064;50.890;5.424;2022-08-03T07:28:24;29.50;68.10
23769;DHT22;12064;50.890;5.424;2022-08-03T07:37:15;29.50;68.00
23769;DHT22;12064;50.890;5.424;2022-08-03T07:46:07;29.60;68.00
23769;DHT22;12064;50.890;5.424;2022-08-03T07:54:57;29.50;68.10
23769;DHT22;12064;50.890;5.424;2022-08-03T08:03:54;29.50;67.90
23769;DHT22;12064;50.890;5.424;2022-08-03T08:12:45;29.50;68.00
23769;DHT22;12064;50.890;5.424;2022-08-03T08:21:36;29.50;68.10
23769;DHT22;12064;50.890;5.424;2022-08-03T08:30:27;29.50;68.20
23769;DHT22;12064;50.890;5.424;2022-08-03T08:39:18;29.50;68.10
23769;DHT22;12064;50.890;5.424;2022-08-03T08:48:12;29.60;68.10
23769;DHT22;12064;50.890;5.424;2022-08-03T08:57:04;29.60;68.20
23769;DHT22;12064;50.890;5.424;2022-08-03T09:06:00;29.70;68.00
23769;DHT22;12064;50.890;5.424;2022-08-03T09:14:51;29.60;68.10
23769;DHT22;12064;50.890;5.424;2022-08-03T09:23:47;29.70;67.90
23769;DHT22;12064;50.890;5.424;2022-08-03T09:32:42;29.60;67.90
23769;DHT22;12064;50.890;5.424;2022-08-03T09:41:34;29.70;67.80
23769;DHT22;12064;50.890;5.424;2022-08-03T09:50:24;29.70;67.90
23769;DHT22;12064;50.890;5.424;2022-08-03T09:59:30;29.70;67.90
23769;DHT22;12064;50.890;5.424;2022-08-03T10:08:21;29.60;68.00
23769;DHT22;12064;50.890;5.424;2022-08-03T10:17:12;29.70;67.90
23769;DHT22;12064;50.890;5.424;2022-08-03T10:26:07;29.70;68.00
23769;DHT22;12064;50.890;5.424;2022-08-03T10:35:05;29.80;68.00
23769;DHT22;12064;50.890;5.424;2022-08-03T10:44:04;29.70;67.80
23769;DHT22;12064;50.890;5.424;2022-08-03T11:01:52;30.00;67.40
23769;DHT22;12064;50.890;5.424;2022-08-03T11:10:46;29.80;67.70
23769;DHT22;12064;50.890;5.424;2022-08-03T11:19:51;29.80;67.40
23769;DHT22;12064;50.890;5.424;2022-08-03T11:28:46;29.70;67.60
23769;DHT22;12064;50.890;5.424;2022-08-03T11:46:58;29.80;67.70
23769;DHT22;12064;50.890;5.424;2022-08-03T11:55:50;29.90;67.40
23769;DHT22;12064;50.890;5.424;2022-08-03T12:04:52;29.90;67.40
23769;DHT22;12064;50.890;5.424;2022-08-03T12:13:48;29.80;67.40
23769;DHT22;12064;50.890;5.424;2022-08-03T12:22:40;30.00;67.10
23769;DHT22;12064;50.890;5.424;2022-08-03T12:31:31;30.00;67.20
23769;DHT22;12064;50.890;5.424;2022-08-03T12:40:29;30.00;67.20
23769;DHT22;12064;50.890;5.424;2022-08-03T12:49:23;29.90;67.20
23769;DHT22;12064;50.890;5.424;2022-08-03T12:58:32;30.00;67.10
23769;DHT22;12064;50.890;5.424;2022-08-03T13:07:23;29.90;67.30
23769;DHT22;12064;50.890;5.424;2022-08-03T13:16:13;30.10;67.20
23769;DHT22;12064;50.890;5.424;2022-08-03T13:25:04;30.20;67.80
23769;DHT22;12064;50.890;5.424;2022-08-03T13:33:55;30.20;67.20
23769;DHT22;12064;50.890;5.424;2022-08-03T13:42:46;30.20;67.10
23769;DHT22;12064;50.890;5.424;2022-08-03T13:51:36;30.30;67.00
23769;DHT22;12064;50.890;5.424;2022-08-03T14:00:27;30.20;66.90
23769;DHT22;12064;50.890;5.424;2022-08-03T14:09:18;30.20;67.20
23769;DHT22;12064;50.890;5.424;2022-08-03T14:18:09;30.20;67.20
23769;DHT22;12064;50.890;5.424;2022-08-03T14:26:59;30.30;67.20
23769;DHT22;12064;50.890;5.424;2022-08-03T14:35:51;30.20;67.10
23769;DHT22;12064;50.890;5.424;2022-08-03T14:44:41;30.30;67.20
23769;DHT22;12064;50.890;5.424;2022-08-03T14:53:35;30.30;67.30
23769;DHT22;12064;50.890;5.424;2022-08-03T15:02:26;30.30;67.20
23769;DHT22;12064;50.890;5.424;2022-08-03T15:11:18;30.30;67.40
23769;DHT22;12064;50.890;5.424;2022-08-03T15:20:09;30.30;67.40
23769;DHT22;12064;50.890;5.424;2022-08-03T15:29:00;30.40;67.30
23769;DHT22;12064;50.890;5.424;2022-08-03T15:37:51;30.30;67.40
23769;DHT22;12064;50.890;5.424;2022-08-03T15:46:42;30.40;67.50
23769;DHT22;12064;50.890;5.424;2022-08-03T15:55:33;30.30;67.70
23769;DHT22;12064;50.890;5.424;2022-08-03T16:04:23;30.40;67.40
23769;DHT22;12064;50.890;5.424;2022-08-03T16:13:14;30.50;67.40
23769;DHT22;12064;50.890;5.424;2022-08-03T16:22:10;30.50;67.30
23769;DHT22;12064;50.890;5.424;2022-08-03T16:31:00;30.40;67.60
23769;DHT22;12064;50.890;5.424;2022-08-03T16:40:14;30.60;67.50
23769;DHT22;12064;50.890;5.424;2022-08-03T16:49:05;30.40;67.90
23769;DHT22;12064;50.890;5.424;2022-08-03T16:57:55;30.50;67.90
23769;DHT22;12064;50.890;5.424;2022-08-03T17:06:46;30.60;67.90
23769;DHT22;12064;50.890;5.424;2022-08-03T17:15:40;30.60;67.90
23769;DHT22;12064;50.890;5.424;2022-08-03T17:34:02;30.50;68.30
23769;DHT22;12064;50.890;5.424;2022-08-03T17:42:54;30.60;67.90
23769;DHT22;12064;50.890;5.424;2022-08-03T17:52:06;30.60;68.00
23769;DHT22;12064;50.890;5.424;2022-08-03T18:01:01;30.60;68.10
23769;DHT22;12064;50.890;5.424;2022-08-03T18:10:15;30.80;68.60
23769;DHT22;12064;50.890;5.424;2022-08-03T18:19:09;30.60;68.10
23769;DHT22;12064;50.890;5.424;2022-08-03T18:28:02;30.70;67.90
23769;DHT22;12064;50.890;5.424;2022-08-03T18:36:58;30.70;68.10
23769;DHT22;12064;50.890;5.424;2022-08-03T18:45:54;30.60;68.30
23769;DHT22;12064;50.890;5.424;2022-08-03T18:54:55;30.70;68.70
23769;DHT22;12064;50.890;5.424;2022-08-03T19:13:08;30.60;68.40
23769;DHT22;12064;50.890;5.424;2022-08-03T19:22:03;30.70;68.10
23769;DHT22;12064;50.890;5.424;2022-08-03T19:30:55;30.80;68.30
23769;DHT22;12064;50.890;5.424;2022-08-03T19:39:46;30.70;68.50
23769;DHT22;12064;50.890;5.424;2022-08-03T19:48:42;30.70;68.40
23769;DHT22;12064;50.890;5.424;2022-08-03T19:57:55;30.60;69.80
23769;DHT22;12064;50.890;5.424;2022-08-03T20:06:56;30.60;71.20
23769;DHT22;12064;50.890;5.424;2022-08-03T20:15:46;30.90;69.70
23769;DHT22;12064;50.890;5.424;2022-08-03T20:24:39;31.30;69.00
23769;DHT22;12064;50.890;5.424;2022-08-03T20:33:32;31.30;68.80
23769;DHT22;12064;50.890;5.424;2022-08-03T20:42:26;31.20;69.00
23769;DHT22;12064;50.890;5.424;2022-08-03T20:51:20;31.30;68.90
23769;DHT22;12064;50.890;5.424;2022-08-03T21:00:11;31.40;68.50
23769;DHT22;12064;50.890;5.424;2022-08-03T21:09:16;31.00;69.10
23769;DHT22;12064;50.890;5.424;2022-08-03T21:18:12;30.90;69.20
23769;DHT22;12064;50.890;5.424;2022-08-03T21:27:03;31.10;69.10
23769;DHT22;12064;50.890;5.424;2022-08-03T21:35:57;31.50;68.80
23769;DHT22;12064;50.890;5.424;2022-08-03T21:44:54;31.20;68.80
23769;DHT22;12064;50.890;5.424;2022-08-03T21:53:45;31.20;68.40
23769;DHT22;12064;50.890;5.424;2022-08-03T22:02:59;31.20;68.80
23769;DHT22;12064;50.890;5.424;2022-08-03T22:11:51;30.90;69.00
23769;DHT22;12064;50.890;5.424;2022-08-03T22:20:52;31.10;68.70
23769;DHT22;12064;50.890;5.424;2022-08-03T22:29:42;31.00;68.60
23769;DHT22;12064;50.890;5.424;2022-08-03T22:38:33;31.00;68.60
23769;DHT22;12064;50.890;5.424;2022-08-03T22:47:27;31.00;68.40
23769;DHT22;12064;50.890;5.424;2022-08-03T22:56:31;31.10;68.60
23769;DHT22;12064;50.890;5.424;2022-08-03T23:05:24;30.90;69.70
23769;DHT22;12064;50.890;5.424;2022-08-03T23:14:18;31.00;68.60
23769;DHT22;12064;50.890;5.424;2022-08-03T23:23:08;30.90;68.70
23769;DHT22;12064;50.890;5.424;2022-08-03T23:32:06;30.90;68.70
23769;DHT22;12064;50.890;5.424;2022-08-03T23:40:58;30.80;68.90
23769;DHT22;12064;50.890;5.424;2022-08-03T23:49:49;30.90;68.70
23769;DHT22;12064;50.890;5.424;2022-08-03T23:58:59;30.90;68.80
